Time;durP1;ratioP1;P1;durP2;ratioP2;P2;SDS_P1;SDS_P2;PMS_P1;PMS_P2;Temp;Humidity;BMP_temperature;BMP_pressure;BME280_temperature;BME280_humidity;BME280_pressure;Samples;Min_cycle;Max_cycle;Signal;HPM_P1;HPM_P2
2023/12/19 00:01:25;;;;;;;19.70;14.37;;;6.70;99.90;;;5.85;99.42;101579.75;5035155;28;20577;-74
2023/12/19 00:03:53;;;;;;;18.87;13.83;;;6.70;99.90;;;5.86;99.43;101570.84;5035092;28;20203;-74
2023/12/19 00:06:21;;;;;;;17.43;14.07;;;6.70;99.90;;;5.87;99.45;101580.50;5035072;28;20211;-74
2023/12/19 00:08:51;;;;;;;19.43;14.70;;;6.70;99.90;;;5.87;99.62;101596.47;5034950;28;20238;-74
2023/12/19 00:11:19;;;;;;;19.97;14.63;;;6.70;99.90;;;5.88;100.00;101600.81;5034873;28;20318;-74
2023/12/19 00:13:47;;;;;;;19.80;14.57;;;6.70;99.90;;;5.89;100.00;101591.91;5034972;28;20238;-74
2023/12/19 00:16:16;;;;;;;21.70;14.70;;;6.80;99.90;;;5.87;100.00;101568.09;5034866;28;20214;-74
2023/12/19 00:18:44;;;;;;;19.10;14.00;;;6.70;99.90;;;5.87;100.00;101580.50;5034414;28;20254;-74
2023/12/19 00:21:12;;;;;;;21.33;14.23;;;6.70;99.90;;;5.89;100.00;101616.66;5034409;28;20202;-74
2023/12/19 00:23:40;;;;;;;18.10;13.93;;;6.80;99.90;;;5.89;100.00;101631.78;5034765;28;20293;-74
2023/12/19 00:26:12;;;;;;;18.50;13.37;;;6.80;99.90;;;5.88;100.00;101636.22;5034667;28;20238;-74
2023/12/19 00:28:41;;;;;;;19.13;14.60;;;6.80;99.90;;;5.88;100.00;101644.19;5034596;28;20234;-74
2023/12/19 00:31:09;;;;;;;19.53;14.47;;;6.80;99.90;;;5.88;100.00;101627.41;5034477;28;20230;-74
2023/12/19 00:33:37;;;;;;;19.77;15.33;;;6.80;99.90;;;5.89;100.00;101634.44;5034544;28;20617;-74
2023/12/19 00:36:06;;;;;;;19.00;14.83;;;6.80;99.90;;;5.90;100.00;101636.09;5034097;28;20668;-74
2023/12/19 00:38:34;;;;;;;21.40;15.57;;;6.80;99.90;;;5.89;100.00;101623.78;5034065;28;20310;-74
2023/12/19 00:41:03;;;;;;;19.63;14.87;;;6.80;99.90;;;5.89;100.00;101621.13;5034387;28;20225;-74
2023/12/19 00:43:32;;;;;;;18.07;14.27;;;6.80;99.90;;;5.88;100.00;101622.94;5034332;28;20210;-74
2023/12/19 00:46:01;;;;;;;17.93;14.70;;;6.80;99.90;;;5.90;100.00;101614.84;5034274;28;20211;-74
2023/12/19 00:48:29;;;;;;;18.30;14.50;;;6.80;99.90;;;5.89;100.00;101613.97;5034151;28;20227;-74
2023/12/19 00:50:57;;;;;;;19.17;15.17;;;6.80;99.90;;;5.90;100.00;101604.22;5033856;28;20700;-74
2023/12/19 00:53:25;;;;;;;20.73;15.57;;;6.70;99.90;;;5.89;100.00;101603.34;5034172;28;20285;-74
2023/12/19 00:55:53;;;;;;;20.97;15.03;;;6.80;99.90;;;5.90;100.00;101620.16;5034087;28;20209;-74
2023/12/19 00:58:21;;;;;;;19.30;14.83;;;6.80;99.90;;;5.90;100.00;101625.47;5033663;28;20313;-74
2023/12/19 01:00:51;;;;;;;20.73;14.47;;;6.70;99.90;;;5.90;100.00;101634.31;5034050;28;20234;-74
2023/12/19 01:03:19;;;;;;;19.83;15.20;;;6.80;99.90;;;5.90;100.00;101610.38;5033369;28;20214;-74
2023/12/19 01:05:47;;;;;;;19.57;14.53;;;6.80;99.90;;;5.89;100.00;101624.63;5034026;28;20206;-74
2023/12/19 01:08:16;;;;;;;19.53;15.37;;;6.80;99.90;;;5.90;100.00;101615.69;5033817;28;20226;-74
2023/12/19 01:10:44;;;;;;;19.47;14.43;;;6.70;99.90;;;5.89;100.00;101613.16;5033488;28;20288;-74
2023/12/19 01:13:12;;;;;;;17.60;14.33;;;6.70;99.90;;;5.91;100.00;101616.56;5033500;28;20661;-74
2023/12/19 01:15:40;;;;;;;20.17;14.63;;;6.70;99.90;;;5.91;100.00;101617.41;5033825;28;20207;-74
2023/12/19 01:18:10;;;;;;;18.57;13.80;;;6.80;99.90;;;5.92;100.00;101626.22;5033653;28;20268;-74
2023/12/19 01:20:39;;;;;;;19.63;14.60;;;6.80;99.90;;;5.94;100.00;101632.28;5033785;28;20207;-74
2023/12/19 01:23:07;;;;;;;16.67;14.37;;;6.80;99.90;;;5.95;100.00;101632.19;5033669;28;20241;-74
2023/12/19 01:25:37;;;;;;;18.80;14.63;;;6.80;99.90;;;5.96;100.00;101614.41;5033681;28;20210;-74
2023/12/19 01:28:06;;;;;;;18.40;13.63;;;6.80;99.90;;;5.96;100.00;101614.41;5033243;28;20728;-74
2023/12/19 01:30:39;;;;;;;19.33;14.10;;;6.80;99.90;;;5.96;100.00;101617.91;5033575;28;20191;-74
2023/12/19 01:33:10;;;;;;;17.77;13.80;;;6.80;99.90;;;5.96;100.00;101609.09;5033615;28;20297;-74
2023/12/19 01:35:39;;;;;;;19.47;13.90;;;6.80;99.90;;;5.96;100.00;101609.94;5033617;28;20195;-74
2023/12/19 01:38:07;;;;;;;16.50;13.83;;;6.80;99.90;;;5.96;100.00;101603.75;5033147;28;20724;-74
2023/12/19 01:40:35;;;;;;;21.27;15.57;;;6.80;99.90;;;5.95;100.00;101597.63;5033471;28;20294;-74
2023/12/19 01:43:15;;;;;;;20.40;16.13;;;6.80;99.90;;;5.94;100.00;101608.34;5033509;28;20215;-74
2023/12/19 01:45:44;;;;;;;23.43;16.40;;;6.80;99.90;;;5.92;100.00;101602.31;5033159;28;20242;-74
2023/12/19 01:48:14;;;;;;;24.03;17.17;;;6.80;99.90;;;5.89;100.00;101586.59;5033049;28;20237;-74
2023/12/19 01:50:43;;;;;;;22.00;16.90;;;6.70;99.90;;;5.86;100.00;101581.47;5033140;28;20325;-74
2023/12/19 01:53:12;;;;;;;22.40;16.73;;;6.70;99.90;;;5.87;100.00;101583.16;5033371;28;20199;-74
2023/12/19 01:55:41;;;;;;;23.43;17.17;;;6.70;99.90;;;5.86;100.00;101586.78;5033398;28;20310;-74
2023/12/19 01:58:11;;;;;;;20.90;16.43;;;6.70;99.90;;;5.86;100.00;101586.78;5033282;28;20254;-74
2023/12/19 02:00:39;;;;;;;20.90;16.77;;;6.70;99.90;;;5.84;100.00;101570.94;5033331;28;20628;-74
2023/12/19 02:03:08;;;;;;;23.07;17.10;;;6.70;99.90;;;5.83;100.00;101565.72;5033304;28;20206;-75
2023/12/19 02:05:42;;;;;;;21.40;16.27;;;6.70;99.90;;;5.84;100.00;101570.06;5033306;28;20590;-75
2023/12/19 02:08:10;;;;;;;22.03;16.10;;;6.70;99.90;;;5.83;100.00;101574.53;5032947;28;20223;-74
2023/12/19 02:10:38;;;;;;;19.50;15.43;;;6.70;99.90;;;5.85;100.00;101585.06;5033209;28;20265;-74
2023/12/19 02:13:07;;;;;;;20.00;15.63;;;6.70;99.90;;;5.83;100.00;101565.72;5033271;28;20226;-74
2023/12/19 02:15:35;;;;;;;20.63;16.30;;;6.70;99.90;;;5.84;100.00;101565.63;5037098;28;20211;-74
2023/12/19 02:18:15;;;;;;;20.93;16.60;;;6.70;99.90;;;5.84;100.00;101562.97;5036760;28;20719;-74
2023/12/19 02:20:45;;;;;;;18.83;14.37;;;6.70;99.90;;;5.86;100.00;101554.88;5036777;28;20198;-74
2023/12/19 02:23:15;;;;;;;18.47;14.43;;;6.70;99.90;;;5.86;100.00;101557.53;5036983;28;20445;-74
2023/12/19 02:25:43;;;;;;;17.77;14.33;;;6.70;99.90;;;5.86;100.00;101544.25;5037019;28;20199;-74
2023/12/19 02:28:11;;;;;;;17.57;13.90;;;6.70;99.90;;;5.87;100.00;101535.34;5036485;28;20234;-74
2023/12/19 02:30:39;;;;;;;16.23;13.33;;;6.70;99.90;;;5.88;100.00;101537.03;5036861;28;20297;-74
2023/12/19 02:33:11;;;;;;;16.17;13.30;;;6.70;99.90;;;5.89;100.00;101538.75;5036785;28;20212;-74
2023/12/19 02:35:40;;;;;;;14.40;12.43;;;6.80;99.90;;;5.89;100.00;101547.53;5036777;28;20206;-74
2023/12/19 02:38:08;;;;;;;15.63;13.17;;;6.80;99.90;;;5.91;100.00;101539.47;5036618;28;20236;-74
2023/12/19 02:40:37;;;;;;;15.00;12.13;;;6.70;99.90;;;5.92;100.00;101533.22;5036665;28;20265;-74
2023/12/19 02:43:05;;;;;;;14.17;11.93;;;6.80;99.90;;;5.92;100.00;101517.25;5036603;28;20297;-74
2023/12/19 02:45:34;;;;;;;12.83;11.53;;;6.80;99.90;;;5.92;100.00;101506.63;5036575;28;20210;-74
2023/12/19 02:48:02;;;;;;;13.23;11.20;;;6.80;99.90;;;5.93;100.00;101514.47;5036442;28;20322;-74
2023/12/19 02:50:31;;;;;;;12.17;10.83;;;6.80;99.90;;;5.94;100.00;101520.66;5036145;28;20264;-74
2023/12/19 02:52:59;;;;;;;14.80;10.97;;;6.80;99.90;;;5.94;100.00;101531.28;5036049;28;20266;-75
2023/12/19 02:55:28;;;;;;;12.43;11.13;;;6.80;99.90;;;5.94;100.00;101520.66;5036399;28;20285;-74
2023/12/19 02:57:59;;;;;;;12.40;11.10;;;6.80;99.90;;;5.95;100.00;101507.25;5036013;28;20719;-78
2023/12/19 03:00:27;;;;;;;13.30;10.77;;;6.80;99.90;;;5.96;100.00;101516.06;5036257;28;20257;-77
2023/12/19 03:02:58;;;;;;;12.23;10.90;;;6.80;99.90;;;5.97;100.00;101507.13;5036258;28;20272;-77
2023/12/19 03:05:27;;;;;;;12.00;10.80;;;6.80;99.90;;;5.97;100.00;101515.09;5036216;28;20270;-77
2023/12/19 03:07:55;;;;;;;11.70;10.53;;;6.80;99.90;;;5.97;100.00;101493.84;5035822;28;20778;-77
2023/12/19 03:10:23;;;;;;;11.97;10.77;;;6.80;99.90;;;5.95;100.00;101495.78;5035798;28;20649;-77
2023/12/19 03:12:51;;;;;;;11.97;10.63;;;6.80;99.90;;;5.96;100.00;101481.50;5035723;28;20640;-77
2023/12/19 03:15:21;;;;;;;12.57;10.47;;;6.80;99.90;;;5.97;100.00;101478.75;5035720;28;20669;-77
2023/12/19 03:17:50;;;;;;;12.23;10.60;;;6.80;99.90;;;5.95;100.00;101475.38;5035630;28;20724;-76
2023/12/19 03:20:18;;;;;;;12.03;10.77;;;6.80;99.90;;;5.97;100.00;101468.13;5035953;28;20234;-78
2023/12/19 03:22:46;;;;;;;12.27;10.30;;;6.80;99.90;;;5.96;100.00;101454.94;5035924;28;20234;-77
2023/12/19 03:25:14;;;;;;;11.40;10.17;;;6.80;99.90;;;5.97;100.00;101456.63;5035155;28;20210;-77
2023/12/19 03:27:42;;;;;;;11.50;10.30;;;6.80;99.90;;;5.97;100.00;101452.16;5035841;28;20227;-79
2023/12/19 03:30:12;;;;;;;9.90;8.90;;;6.80;99.90;;;5.96;100.00;101460.25;5036000;28;20215;-78
2023/12/19 03:32:41;;;;;;;11.53;9.27;;;6.80;99.90;;;5.98;100.00;101463.66;5035640;28;20234;-76
2023/12/19 03:35:12;;;;;;;11.63;9.43;;;6.80;99.90;;;5.98;100.00;101469.81;5035670;28;20238;-76
2023/12/19 03:37:40;;;;;;;10.43;8.97;;;6.90;99.90;;;5.98;100.00;101474.28;5036317;28;20282;-77
2023/12/19 03:40:09;;;;;;;9.80;8.80;;;6.80;99.90;;;5.97;100.00;101476.09;5035612;28;20256;-78
2023/12/19 03:42:37;;;;;;;10.57;8.83;;;6.80;99.90;;;5.97;100.00;101470.78;5035166;28;20565;-78
2023/12/19 03:45:09;;;;;;;10.43;9.43;;;6.80;99.90;;;5.97;100.00;101467.25;5035542;28;20210;-77
2023/12/19 03:47:39;;;;;;;10.20;9.13;;;6.80;99.90;;;5.98;100.00;101461.00;5035363;28;20234;-77
2023/12/19 03:50:10;;;;;;;10.67;9.40;;;6.90;99.90;;;5.97;100.00;101456.63;5035005;28;20614;-77
2023/12/19 03:52:38;;;;;;;11.07;9.57;;;6.80;99.90;;;5.96;100.00;101438.97;5035287;28;20643;-77
2023/12/19 03:55:08;;;;;;;10.50;9.50;;;6.80;99.90;;;5.95;100.00;101429.34;5035345;28;20211;-77
2023/12/19 03:57:36;;;;;;;10.17;9.17;;;6.80;99.90;;;5.95;100.00;101432.84;5035470;28;20258;-77
2023/12/19 04:00:07;;;;;;;15.40;12.50;;;6.80;99.90;;;5.98;100.00;101434.41;5035236;28;20218;-77
2023/12/19 04:02:35;;;;;;;11.67;10.53;;;6.80;99.90;;;5.97;100.00;101419.41;5034882;28;20742;-77
2023/12/19 04:05:04;;;;;;;12.30;11.00;;;6.80;99.90;;;5.96;100.00;101415.06;5035064;28;20291;-77
2023/12/19 04:07:33;;;;;;;10.80;9.70;;;6.80;99.90;;;5.97;100.00;101424.75;5035016;28;20285;-77
2023/12/19 04:10:02;;;;;;;10.33;9.23;;;6.80;99.90;;;5.98;100.00;101418.47;5035051;28;20210;-77
2023/12/19 04:12:30;;;;;;;10.03;9.03;;;6.80;99.90;;;5.98;100.00;101407.84;5034917;28;20276;-77
2023/12/19 04:14:58;;;;;;;9.53;8.63;;;6.90;99.90;;;5.98;100.00;101390.09;5034929;28;20260;-77
2023/12/19 04:17:26;;;;;;;10.90;9.90;;;6.80;99.90;;;5.98;100.00;101394.56;5034849;28;20223;-77
2023/12/19 04:19:55;;;;;;;10.13;9.13;;;6.80;99.90;;;5.99;100.00;101404.22;5034832;28;20207;-77
2023/12/19 04:22:23;;;;;;;10.40;9.20;;;6.80;99.90;;;5.99;100.00;101401.56;5034796;28;20207;-77
2023/12/19 04:24:52;;;;;;;10.70;9.60;;;6.80;99.90;;;5.99;100.00;101388.28;5034763;28;20661;-77
2023/12/19 04:27:21;;;;;;;11.03;9.87;;;6.90;99.90;;;5.99;100.00;101389.09;5034628;28;20231;-77
2023/12/19 04:29:50;;;;;;;10.73;9.73;;;6.90;99.90;;;6.00;100.00;101389.94;5034715;28;20214;-78
2023/12/19 04:32:19;;;;;;;10.83;9.83;;;6.90;99.90;;;6.00;100.00;101377.50;5034519;28;20210;-77
2023/12/19 04:34:47;;;;;;;11.13;10.00;;;6.90;99.90;;;6.00;100.00;101376.66;5034271;28;20298;-77
2023/12/19 04:37:16;;;;;;;11.03;9.93;;;6.90;99.90;;;6.00;100.00;101366.03;5033194;28;20752;-76
2023/12/19 04:39:44;;;;;;;12.83;10.17;;;6.80;99.90;;;5.97;100.00;101371.59;5034455;28;20211;-78
2023/12/19 04:42:17;;;;;;;12.73;11.40;;;6.80;99.90;;;5.96;100.00;101369.88;5034394;28;20207;-77
2023/12/19 04:44:46;;;;;;;12.87;11.43;;;6.80;99.90;;;5.95;100.00;101379.69;5034408;28;20187;-77
2023/12/19 04:47:15;;;;;;;12.83;10.53;;;6.80;99.90;;;5.93;100.00;101380.75;5034358;28;20273;-77
2023/12/19 04:49:43;;;;;;;12.53;11.23;;;6.80;99.90;;;5.93;100.00;101388.72;5034139;28;20305;-77
2023/12/19 04:52:12;;;;;;;14.20;11.37;;;6.80;99.90;;;5.92;100.00;101379.06;5034218;28;20206;-77
2023/12/19 04:54:40;;;;;;;13.67;11.13;;;6.80;99.90;;;5.93;100.00;101380.75;5033826;28;20785;-77
2023/12/19 04:57:08;;;;;;;13.90;12.33;;;6.80;99.90;;;5.93;100.00;101365.66;5034123;28;20253;-77
2023/12/19 04:59:38;;;;;;;12.20;10.90;;;6.80;99.90;;;5.95;100.00;101365.53;5034066;28;20298;-76
2023/12/19 05:02:07;;;;;;;14.20;12.27;;;6.80;99.90;;;5.95;100.00;101363.75;5034035;28;20286;-76
2023/12/19 05:04:35;;;;;;;12.77;11.37;;;6.80;99.90;;;5.97;100.00;101371.59;5034231;28;20284;-77
2023/12/19 05:07:04;;;;;;;13.37;11.83;;;6.80;99.90;;;5.97;100.00;101371.59;5033583;28;20704;-77
2023/12/19 05:09:32;;;;;;;12.70;11.40;;;6.80;99.90;;;5.96;100.00;101372.53;5033929;28;20206;-76
2023/12/19 05:12:01;;;;;;;13.30;11.73;;;6.80;99.90;;;5.92;100.00;101376.41;5033535;28;20676;-76
2023/12/19 05:14:29;;;;;;;12.10;10.83;;;6.80;99.90;;;5.89;100.00;101368.69;5033777;28;20318;-77
2023/12/19 05:16:59;;;;;;;13.20;11.70;;;6.80;99.90;;;5.86;100.00;101368.88;5033780;28;20213;-76
2023/12/19 05:19:28;;;;;;;14.13;12.30;;;6.70;99.90;;;5.85;100.00;101361.84;5034632;28;20207;-76
2023/12/19 05:21:56;;;;;;;15.47;13.87;;;6.70;99.90;;;5.82;100.00;101348.81;5033716;28;20250;-76
2023/12/19 05:24:27;;;;;;;15.47;13.27;;;6.70;99.90;;;5.78;100.00;101355.31;5033399;28;20202;-76
2023/12/19 05:26:59;;;;;;;15.00;13.23;;;6.60;99.90;;;5.76;100.00;101362.53;5033630;28;20194;-76
2023/12/19 05:29:29;;;;;;;17.47;14.17;;;6.60;99.90;;;5.74;100.00;101356.50;5033720;28;20198;-77
2023/12/19 05:31:59;;;;;;;16.93;14.10;;;6.60;99.90;;;5.71;100.00;101352.25;5033329;28;20576;-77
2023/12/19 05:34:27;;;;;;;15.90;14.20;;;6.60;99.90;;;5.69;100.00;101356.81;5033521;28;20337;-77
2023/12/19 05:36:56;;;;;;;17.33;13.93;;;6.50;99.90;;;5.67;100.00;101352.59;5033532;28;20207;-77
2023/12/19 05:39:24;;;;;;;17.57;13.50;;;6.50;99.90;;;5.64;100.00;101340.38;5033763;28;20207;-77
2023/12/19 05:41:56;;;;;;;14.80;12.20;;;6.50;99.90;;;5.61;100.00;101328.19;5033516;28;20207;-78
2023/12/19 05:44:24;;;;;;;15.27;13.30;;;6.50;99.90;;;5.61;100.00;101322.88;5033623;28;20199;-77
2023/12/19 05:46:53;;;;;;;15.27;13.47;;;6.40;99.90;;;5.61;100.00;101312.25;5033621;28;20298;-76
2023/12/19 05:49:23;;;;;;;15.60;13.47;;;6.50;99.90;;;5.58;100.00;101291.22;5037498;28;20314;-77
2023/12/19 05:51:51;;;;;;;14.47;12.87;;;6.40;99.90;;;5.52;100.00;101282.84;5040134;28;20557;-77
2023/12/19 05:54:19;;;;;;;16.00;13.03;;;6.40;99.90;;;5.49;100.00;101291.91;5039913;28;20227;-77
2023/12/19 05:56:47;;;;;;;13.53;12.13;;;6.30;99.90;;;5.51;100.00;101284.66;5039837;28;20246;-77
2023/12/19 05:59:15;;;;;;;14.50;12.47;;;6.40;99.90;;;5.45;100.00;101285.13;5039931;28;20578;-77
2023/12/19 06:01:44;;;;;;;15.30;13.27;;;6.30;99.90;;;5.44;100.00;101288.75;5039602;28;20298;-77
2023/12/19 06:04:13;;;;;;;14.67;13.17;;;6.30;99.90;;;5.45;100.00;101278.97;5039856;28;20206;-77
2023/12/19 06:06:44;;;;;;;13.07;11.77;;;6.30;99.90;;;5.45;100.00;101279.81;5039778;28;20213;-77
2023/12/19 06:09:12;;;;;;;14.13;12.53;;;6.30;99.90;;;5.45;100.00;101277.16;5039595;28;20229;-77
2023/12/19 06:11:41;;;;;;;13.17;11.40;;;6.30;99.90;;;5.50;100.00;101280.34;5040062;28;20237;-77
2023/12/19 06:14:09;;;;;;;13.23;11.73;;;6.30;99.90;;;5.49;100.00;101281.28;5039373;28;20580;-76
2023/12/19 06:16:38;;;;;;;12.53;11.20;;;6.40;99.90;;;5.48;100.00;101282.25;5039756;28;20214;-77
2023/12/19 06:19:06;;;;;;;13.17;11.70;;;6.40;99.90;;;5.46;100.00;101281.53;5039739;28;20206;-77
2023/12/19 06:21:34;;;;;;;12.97;11.67;;;6.30;99.90;;;5.52;100.00;101296.13;5039684;28;20290;-77
2023/12/19 06:24:05;;;;;;;13.33;11.90;;;6.40;99.90;;;5.47;100.00;101287.69;5039438;28;20205;-77
2023/12/19 06:26:33;;;;;;;13.50;12.10;;;6.30;99.90;;;5.49;100.00;101286.59;5039669;28;20293;-77
2023/12/19 06:29:01;;;;;;;13.53;11.63;;;6.30;99.90;;;5.47;100.00;101280.56;5039625;28;20229;-77
2023/12/19 06:31:29;;;;;;;13.10;11.80;;;6.30;99.90;;;5.47;100.00;101277.06;5039445;28;20645;-78
2023/12/19 06:33:57;;;;;;;13.37;11.97;;;6.30;99.90;;;5.47;100.00;101287.69;5039564;28;20724;-78
2023/12/19 06:36:31;;;;;;;11.97;10.67;;;6.30;99.90;;;5.48;100.00;101290.19;5039345;28;20695;-78
2023/12/19 06:39:00;;;;;;;12.13;10.80;;;6.40;99.90;;;5.48;100.00;101274.28;5039541;28;20230;-77
2023/12/19 06:41:29;;;;;;;12.70;11.40;;;6.40;99.90;;;5.50;100.00;101271.50;5039530;28;20297;-77
2023/12/19 06:43:57;;;;;;;14.03;11.93;;;6.40;99.90;;;5.49;100.00;101265.34;5039561;28;20289;-77
2023/12/19 06:46:26;;;;;;;11.40;10.20;;;6.40;99.90;;;5.50;100.00;101261.75;5039524;28;20211;-77
2023/12/19 06:48:54;;;;;;;11.90;10.50;;;6.40;99.90;;;5.46;100.00;101262.94;5039334;28;20656;-77
2023/12/19 06:51:26;;;;;;;13.73;11.80;;;6.40;99.90;;;5.46;100.00;101264.72;5039516;28;20187;-77
2023/12/19 06:53:57;;;;;;;13.63;11.77;;;6.40;99.90;;;5.45;100.00;101263.03;5039410;28;20588;-77
2023/12/19 06:56:26;;;;;;;13.33;12.03;;;6.30;99.90;;;5.47;100.00;101269.94;5039410;28;20214;-77
2023/12/19 06:58:57;;;;;;;13.10;11.63;;;6.30;99.90;;;5.45;100.00;101277.16;5039649;28;20276;-77
2023/12/19 07:01:25;;;;;;;14.70;12.67;;;6.30;99.90;;;5.45;100.00;101279.81;5036136;28;20257;-77
2023/12/19 07:03:53;;;;;;;15.10;12.40;;;6.30;99.90;;;5.46;100.00;101275.34;5036314;28;20199;-77
2023/12/19 07:06:21;;;;;;;13.27;11.90;;;6.30;99.90;;;5.45;100.00;101277.16;5036213;28;20214;-76
2023/12/19 07:08:50;;;;;;;13.97;12.47;;;6.30;99.90;;;5.44;100.00;101270.19;5036110;28;20276;-76
2023/12/19 07:11:22;;;;;;;16.67;13.37;;;6.30;99.90;;;5.40;100.00;101276.66;5036101;28;20207;-76
2023/12/19 07:13:51;;;;;;;14.43;12.93;;;6.30;99.90;;;5.39;100.00;101280.28;5035977;28;20256;-76
2023/12/19 07:16:21;;;;;;;14.90;13.30;;;6.30;99.90;;;5.42;100.00;101280.03;5036059;28;20265;-76
2023/12/19 07:18:50;;;;;;;15.10;13.47;;;6.30;99.90;;;5.38;100.00;101278.56;5035950;28;20235;-76
2023/12/19 07:21:21;;;;;;;15.97;13.33;;;6.20;99.90;;;5.38;100.00;101275.91;5035912;28;20210;-76
2023/12/19 07:23:51;;;;;;;18.53;14.00;;;6.30;99.90;;;5.39;100.00;101274.13;5035951;28;20249;-76
2023/12/19 07:26:24;;;;;;;16.37;14.00;;;6.20;99.90;;;5.36;100.00;101275.19;5035874;28;20202;-76
2023/12/19 07:28:53;;;;;;;15.17;13.57;;;6.20;99.90;;;5.37;100.00;101278.72;5035725;28;20258;-77
2023/12/19 07:31:25;;;;;;;16.20;13.13;;;6.20;99.90;;;5.38;100.00;101262.66;5035737;28;20211;-77
2023/12/19 07:33:56;;;;;;;19.03;13.70;;;6.20;99.90;;;5.37;100.00;101266.28;5035657;28;20191;-77
2023/12/19 07:36:25;;;;;;;17.27;14.03;;;6.20;99.90;;;5.38;100.00;101256.47;5035751;28;20223;-77
2023/12/19 07:38:54;;;;;;;15.07;13.00;;;6.20;99.90;;;5.40;100.00;101260.75;5035253;28;20718;-77
2023/12/19 07:41:26;;;;;;;16.17;13.10;;;6.30;99.90;;;5.37;100.00;101255.66;5035266;28;20215;-77
2023/12/19 07:43:55;;;;;;;16.50;13.77;;;6.30;99.90;;;5.38;100.00;101256.47;5035268;28;20290;-77
2023/12/19 07:46:25;;;;;;;16.70;13.90;;;6.20;99.90;;;5.38;100.00;101260.00;5035474;28;20293;-77
2023/12/19 07:48:53;;;;;;;14.43;12.83;;;6.20;99.90;;;5.39;100.00;101253.72;5034933;28;20250;-77
2023/12/19 07:51:24;;;;;;;14.50;13.00;;;6.20;99.90;;;5.38;100.00;101262.66;5035419;28;20195;-77
2023/12/19 07:53:54;;;;;;;16.13;12.40;;;6.30;99.90;;;5.40;100.00;101249.25;5035383;28;20199;-77
2023/12/19 07:56:23;;;;;;;16.60;13.13;;;6.20;99.90;;;5.38;100.00;101251.16;5035231;28;20223;-76
2023/12/19 07:58:52;;;;;;;15.47;13.33;;;6.30;99.90;;;5.37;100.00;101236.22;5035159;28;20223;-76
2023/12/19 08:01:21;;;;;;;16.13;13.77;;;6.20;99.90;;;5.35;100.00;101238.97;5035188;28;20261;-76
2023/12/19 08:03:50;;;;;;;16.10;13.63;;;6.20;99.90;;;5.38;100.00;101229.94;5035126;28;20580;-76
2023/12/19 08:06:19;;;;;;;16.40;13.80;;;6.20;99.90;;;5.37;100.00;101225.59;5035180;28;20228;-76
2023/12/19 08:08:49;;;;;;;16.43;14.00;;;6.20;99.90;;;5.37;100.00;101228.25;5035213;28;20236;-76
2023/12/19 08:11:18;;;;;;;16.27;13.77;;;6.30;99.90;;;5.35;100.00;101212.44;5035134;28;20268;-76
2023/12/19 08:13:48;;;;;;;16.30;13.57;;;6.20;99.90;;;5.33;100.00;101205.56;5035000;28;20266;-77
2023/12/19 08:16:16;;;;;;;18.57;13.67;;;6.20;99.90;;;5.31;100.00;101192.38;5034865;28;20210;-76
2023/12/19 08:18:44;;;;;;;17.57;14.37;;;6.20;99.90;;;5.30;100.00;101196.03;5034508;28;20759;-76
2023/12/19 08:21:14;;;;;;;17.63;14.60;;;6.20;99.90;;;5.29;100.00;101189.00;5034837;28;20229;-76
2023/12/19 08:23:44;;;;;;;18.07;14.63;;;6.10;99.90;;;5.30;100.00;101190.72;5034796;28;20241;-76
2023/12/19 08:26:13;;;;;;;17.50;14.00;;;6.20;99.90;;;5.32;100.00;101183.47;5034451;28;20245;-76
2023/12/19 08:28:41;;;;;;;19.57;13.83;;;6.20;99.90;;;5.30;100.00;101174.78;5034260;28;20723;-77
2023/12/19 08:31:10;;;;;;;19.13;13.70;;;6.20;99.90;;;5.31;100.00;101170.31;5034320;28;20221;-77
2023/12/19 08:33:41;;;;;;;16.80;13.17;;;6.20;99.90;;;5.30;100.00;101169.47;5034319;28;20623;-77
2023/12/19 08:36:09;;;;;;;16.57;13.20;;;6.20;99.90;;;5.31;100.00;101176.44;5034507;28;20215;-77
2023/12/19 08:39:00;;;;;;;16.40;12.60;;;6.20;99.90;;;5.33;100.00;101179.84;5034378;28;20239;-77
2023/12/19 08:41:28;;;;;;;14.60;11.73;;;6.20;99.90;;;5.28;100.00;101182.00;5034137;28;20211;-77
2023/12/19 08:43:56;;;;;;;17.53;13.47;;;6.20;99.90;;;5.30;100.00;101188.06;5034405;28;20265;-77
2023/12/19 08:46:24;;;;;;;15.60;12.37;;;6.20;99.90;;;5.29;100.00;101178.38;5034305;28;20294;-75
2023/12/19 08:48:53;;;;;;;14.43;11.57;;;6.20;99.90;;;5.29;100.00;101177.53;5034047;28;20309;-69
2023/12/19 08:51:21;;;;;;;17.57;13.37;;;6.20;99.90;;;5.28;100.00;101166.06;5034306;28;20214;-69
2023/12/19 08:53:50;;;;;;;14.10;11.20;;;6.20;99.90;;;5.31;100.00;101163.16;5034200;28;20213;-68
2023/12/19 08:56:19;;;;;;;14.30;11.23;;;6.20;99.90;;;5.31;100.00;101160.53;5034085;28;20318;-68
2023/12/19 08:58:48;;;;;;;13.87;11.10;;;6.20;99.90;;;5.33;100.00;101163.06;5033747;28;20716;-67
2023/12/19 09:01:17;;;;;;;14.00;10.53;;;6.20;99.90;;;5.35;100.00;101148.72;5034095;28;20260;-68
2023/12/19 09:03:45;;;;;;;11.90;10.37;;;6.20;99.90;;;5.35;100.00;101155.81;5034045;28;20215;-68
2023/12/19 09:06:14;;;;;;;12.47;10.30;;;6.20;99.90;;;5.35;100.00;101156.69;5033705;28;20741;-68
2023/12/19 09:08:42;;;;;;;13.73;9.67;;;6.20;99.90;;;5.36;100.00;101154.88;5033530;28;20598;-68
2023/12/19 09:11:10;;;;;;;12.13;10.03;;;6.20;99.90;;;5.38;100.00;101156.44;5034102;28;20664;-68
2023/12/19 09:13:40;;;;;;;11.60;9.40;;;6.30;99.90;;;5.35;100.00;101146.06;5033872;28;20301;-68
2023/12/19 09:16:08;;;;;;;11.73;9.90;;;6.20;99.90;;;5.38;100.00;101156.44;5033767;28;20280;-68
2023/12/19 09:18:37;;;;;;;11.07;9.53;;;6.30;99.90;;;5.39;100.00;101152.81;5033743;28;20227;-68
2023/12/19 09:21:07;;;;;;;12.43;9.20;;;6.30;99.90;;;5.41;100.00;101155.38;5033771;28;20221;-67
2023/12/19 09:23:35;;;;;;;12.00;9.17;;;6.30;99.90;;;5.40;100.00;101143.06;5033277;28;20290;-68
2023/12/19 09:26:07;;;;;;;11.67;9.23;;;6.30;99.90;;;5.42;100.00;101146.44;5033749;28;20226;-67
2023/12/19 09:28:35;;;;;;;10.80;8.93;;;6.30;99.90;;;5.42;100.00;101136.66;5033619;28;20222;-67
2023/12/19 09:31:07;;;;;;;10.37;8.73;;;6.30;99.90;;;5.44;100.00;101134.75;5033637;28;20298;-68
2023/12/19 09:33:37;;;;;;;10.23;8.77;;;6.30;99.90;;;5.46;100.00;101127.50;5033700;28;20186;-68
2023/12/19 09:36:08;;;;;;;9.43;7.83;;;6.30;99.90;;;5.48;100.00;101124.75;5033538;28;20277;-67
2023/12/19 09:38:37;;;;;;;9.07;7.40;;;6.40;99.90;;;5.49;100.00;101127.25;5033927;28;20309;-67
2023/12/19 09:41:06;;;;;;;9.27;7.10;;;6.40;99.90;;;5.52;100.00;101111.09;5033569;28;20289;-67
2023/12/19 09:43:34;;;;;;;10.67;7.93;;;6.40;99.90;;;5.53;100.00;101110.13;5033499;28;20243;-67
2023/12/19 09:46:04;;;;;;;9.53;7.80;;;6.40;99.90;;;5.55;100.00;101100.22;5033452;28;20209;-67
2023/12/19 09:48:35;;;;;;;9.80;8.40;;;6.40;99.90;;;5.56;100.00;101095.75;5033390;28;20248;-67
2023/12/19 09:51:19;;;;;;;9.37;7.70;;;6.40;99.90;;;5.58;100.00;101105.28;5033087;28;20279;-67
2023/12/19 09:53:50;;;;;;;9.70;7.97;;;6.50;99.90;;;5.61;100.00;101104.22;5033484;28;20218;-67
2023/12/19 09:56:19;;;;;;;9.60;8.30;;;6.50;99.90;;;5.59;100.00;101099.03;5033060;28;20684;-67
2023/12/19 09:58:49;;;;;;;10.70;8.03;;;6.50;99.90;;;5.60;100.00;101100.72;5032997;28;20280;-70
2023/12/19 10:01:19;;;;;;;9.43;7.67;;;6.50;99.90;;;5.61;100.00;101093.59;5033356;28;20286;-72
2023/12/19 10:03:49;;;;;;;8.93;7.80;;;6.50;99.90;;;5.61;100.00;101083.81;5033653;28;20233;-72
2023/12/19 10:06:18;;;;;;;8.93;7.67;;;6.50;99.90;;;5.61;100.00;101078.50;5033318;28;20207;-71
2023/12/19 10:08:48;;;;;;;9.03;7.40;;;6.50;99.90;;;5.61;100.00;101078.50;5033373;28;20258;-71
2023/12/19 10:11:18;;;;;;;9.23;7.33;;;6.50;99.90;;;5.62;100.00;101074.88;5032934;28;20253;-72
2023/12/19 10:13:47;;;;;;;10.73;8.33;;;6.50;99.90;;;5.61;100.00;101073.22;5032928;28;20626;-71
2023/12/19 10:16:17;;;;;;;10.63;8.27;;;6.50;99.90;;;5.61;100.00;101062.56;5033119;28;20227;-71